sensor_id;sensor_type;location;lat;lon;timestamp;P1;durP1;ratioP1;P2;durP2;ratioP2
24857;SDS011;12935;50.782;6.074;2022-07-23T00:00:53;27.97;;;11.33;;
24857;SDS011;12935;50.782;6.074;2022-07-23T00:03:19;44.63;;;14.43;;
24857;SDS011;12935;50.782;6.074;2022-07-23T00:05:44;30.77;;;13.20;;
24857;SDS011;12935;50.782;6.074;2022-07-23T00:08:09;29.70;;;13.17;;
24857;SDS011;12935;50.782;6.074;2022-07-23T00:10:35;35.13;;;13.50;;
24857;SDS011;12935;50.782;6.074;2022-07-23T00:13:00;22.63;;;10.50;;
24857;SDS011;12935;50.782;6.074;2022-07-23T00:15:25;38.50;;;13.70;;
24857;SDS011;12935;50.782;6.074;2022-07-23T00:17:51;25.03;;;12.90;;
24857;SDS011;12935;50.782;6.074;2022-07-23T00:20:16;27.27;;;12.10;;
24857;SDS011;12935;50.782;6.074;2022-07-23T00:22:54;42.80;;;14.30;;
24857;SDS011;12935;50.782;6.074;2022-07-23T00:25:20;31.97;;;12.33;;
24857;SDS011;12935;50.782;6.074;2022-07-23T00:27:47;55.50;;;14.70;;
24857;SDS011;12935;50.782;6.074;2022-07-23T00:30:13;29.37;;;12.33;;
24857;SDS011;12935;50.782;6.074;2022-07-23T00:32:48;28.23;;;12.10;;
24857;SDS011;12935;50.782;6.074;2022-07-23T00:35:15;39.93;;;14.83;;
24857;SDS011;12935;50.782;6.074;2022-07-23T00:37:41;34.07;;;14.07;;
24857;SDS011;12935;50.782;6.074;2022-07-23T00:40:07;39.67;;;12.97;;
24857;SDS011;12935;50.782;6.074;2022-07-23T00:42:33;50.53;;;14.93;;
24857;SDS011;12935;50.782;6.074;2022-07-23T00:44:59;26.43;;;12.77;;
24857;SDS011;12935;50.782;6.074;2022-07-23T00:47:24;44.90;;;13.57;;
24857;SDS011;12935;50.782;6.074;2022-07-23T00:49:49;42.00;;;14.43;;
24857;SDS011;12935;50.782;6.074;2022-07-23T00:52:14;99.27;;;22.00;;
24857;SDS011;12935;50.782;6.074;2022-07-23T00:54:40;51.33;;;13.33;;
24857;SDS011;12935;50.782;6.074;2022-07-23T00:57:06;24.27;;;13.13;;
24857;SDS011;12935;50.782;6.074;2022-07-23T00:59:31;28.50;;;11.87;;
24857;SDS011;12935;50.782;6.074;2022-07-23T01:01:57;28.67;;;12.40;;
24857;SDS011;12935;50.782;6.074;2022-07-23T01:04:22;29.07;;;12.57;;
24857;SDS011;12935;50.782;6.074;2022-07-23T01:06:47;32.37;;;13.93;;
24857;SDS011;12935;50.782;6.074;2022-07-23T01:09:13;38.37;;;13.40;;
24857;SDS011;12935;50.782;6.074;2022-07-23T01:11:39;25.30;;;11.97;;
24857;SDS011;12935;50.782;6.074;2022-07-23T01:14:09;33.00;;;13.63;;
24857;SDS011;12935;50.782;6.074;2022-07-23T01:16:36;29.40;;;14.17;;
24857;SDS011;12935;50.782;6.074;2022-07-23T01:19:01;28.03;;;11.73;;
24857;SDS011;12935;50.782;6.074;2022-07-23T01:21:27;45.43;;;16.37;;
24857;SDS011;12935;50.782;6.074;2022-07-23T01:23:52;53.43;;;17.20;;
24857;SDS011;12935;50.782;6.074;2022-07-23T01:26:17;28.17;;;11.70;;
24857;SDS011;12935;50.782;6.074;2022-07-23T01:28:43;35.10;;;16.90;;
24857;SDS011;12935;50.782;6.074;2022-07-23T01:31:08;29.27;;;13.00;;
24857;SDS011;12935;50.782;6.074;2022-07-23T01:33:33;26.53;;;12.33;;
24857;SDS011;12935;50.782;6.074;2022-07-23T01:35:59;48.67;;;15.17;;
24857;SDS011;12935;50.782;6.074;2022-07-23T01:38:24;46.10;;;16.10;;
24857;SDS011;12935;50.782;6.074;2022-07-23T01:40:49;41.60;;;13.13;;
24857;SDS011;12935;50.782;6.074;2022-07-23T01:43:14;25.17;;;11.87;;
24857;SDS011;12935;50.782;6.074;2022-07-23T01:45:40;29.03;;;13.00;;
24857;SDS011;12935;50.782;6.074;2022-07-23T01:48:06;39.27;;;14.47;;
24857;SDS011;12935;50.782;6.074;2022-07-23T01:50:32;39.80;;;13.80;;
24857;SDS011;12935;50.782;6.074;2022-07-23T01:52:57;41.77;;;14.00;;
24857;SDS011;12935;50.782;6.074;2022-07-23T01:55:22;30.83;;;12.27;;
24857;SDS011;12935;50.782;6.074;2022-07-23T01:57:48;30.10;;;13.00;;
24857;SDS011;12935;50.782;6.074;2022-07-23T02:00:13;39.07;;;12.43;;
24857;SDS011;12935;50.782;6.074;2022-07-23T02:02:38;32.70;;;12.90;;
24857;SDS011;12935;50.782;6.074;2022-07-23T02:05:04;35.50;;;14.10;;
24857;SDS011;12935;50.782;6.074;2022-07-23T02:07:29;48.87;;;15.97;;
24857;SDS011;12935;50.782;6.074;2022-07-23T02:09:55;24.37;;;12.00;;
24857;SDS011;12935;50.782;6.074;2022-07-23T02:12:20;91.67;;;20.23;;
24857;SDS011;12935;50.782;6.074;2022-07-23T02:14:45;28.77;;;12.30;;
24857;SDS011;12935;50.782;6.074;2022-07-23T02:17:10;41.13;;;14.43;;
24857;SDS011;12935;50.782;6.074;2022-07-23T02:19:36;31.40;;;13.80;;
24857;SDS011;12935;50.782;6.074;2022-07-23T02:22:01;41.70;;;14.13;;
24857;SDS011;12935;50.782;6.074;2022-07-23T02:24:26;28.73;;;11.57;;
24857;SDS011;12935;50.782;6.074;2022-07-23T02:26:51;25.53;;;12.90;;
24857;SDS011;12935;50.782;6.074;2022-07-23T02:29:17;36.50;;;15.57;;
24857;SDS011;12935;50.782;6.074;2022-07-23T02:31:42;27.57;;;13.10;;
24857;SDS011;12935;50.782;6.074;2022-07-23T02:34:07;31.60;;;12.83;;
24857;SDS011;12935;50.782;6.074;2022-07-23T02:36:36;42.13;;;15.00;;
24857;SDS011;12935;50.782;6.074;2022-07-23T02:39:01;35.53;;;13.20;;
24857;SDS011;12935;50.782;6.074;2022-07-23T02:41:27;31.03;;;12.53;;
24857;SDS011;12935;50.782;6.074;2022-07-23T02:43:52;39.00;;;12.63;;
24857;SDS011;12935;50.782;6.074;2022-07-23T02:46:17;28.47;;;13.40;;
24857;SDS011;12935;50.782;6.074;2022-07-23T02:48:43;38.10;;;12.57;;
24857;SDS011;12935;50.782;6.074;2022-07-23T02:51:08;43.47;;;17.10;;
24857;SDS011;12935;50.782;6.074;2022-07-23T02:53:33;27.47;;;13.40;;
24857;SDS011;12935;50.782;6.074;2022-07-23T02:55:58;40.23;;;12.50;;
24857;SDS011;12935;50.782;6.074;2022-07-23T02:58:24;29.53;;;13.10;;
24857;SDS011;12935;50.782;6.074;2022-07-23T03:00:51;27.83;;;11.97;;
24857;SDS011;12935;50.782;6.074;2022-07-23T03:03:17;35.40;;;12.93;;
24857;SDS011;12935;50.782;6.074;2022-07-23T03:05:42;34.53;;;13.50;;
24857;SDS011;12935;50.782;6.074;2022-07-23T03:08:08;45.70;;;14.00;;
24857;SDS011;12935;50.782;6.074;2022-07-23T03:10:33;54.20;;;15.47;;
24857;SDS011;12935;50.782;6.074;2022-07-23T03:12:58;35.47;;;13.60;;
24857;SDS011;12935;50.782;6.074;2022-07-23T03:15:24;30.43;;;13.13;;
24857;SDS011;12935;50.782;6.074;2022-07-23T03:17:49;26.23;;;11.67;;
24857;SDS011;12935;50.782;6.074;2022-07-23T03:20:14;37.40;;;12.73;;
24857;SDS011;12935;50.782;6.074;2022-07-23T03:22:39;33.63;;;13.27;;
24857;SDS011;12935;50.782;6.074;2022-07-23T03:25:05;28.47;;;11.13;;
24857;SDS011;12935;50.782;6.074;2022-07-23T03:27:30;29.50;;;12.37;;
24857;SDS011;12935;50.782;6.074;2022-07-23T03:29:57;41.80;;;14.20;;
24857;SDS011;12935;50.782;6.074;2022-07-23T03:32:24;84.27;;;16.97;;
24857;SDS011;12935;50.782;6.074;2022-07-23T03:34:50;39.87;;;14.47;;
24857;SDS011;12935;50.782;6.074;2022-07-23T03:37:17;32.43;;;11.80;;
24857;SDS011;12935;50.782;6.074;2022-07-23T03:39:42;35.10;;;11.40;;
24857;SDS011;12935;50.782;6.074;2022-07-23T03:42:08;39.63;;;12.20;;
24857;SDS011;12935;50.782;6.074;2022-07-23T03:44:33;34.87;;;11.90;;
24857;SDS011;12935;50.782;6.074;2022-07-23T03:46:59;38.60;;;13.50;;
24857;SDS011;12935;50.782;6.074;2022-07-23T03:49:24;28.00;;;12.70;;
24857;SDS011;12935;50.782;6.074;2022-07-23T03:51:50;36.63;;;12.73;;
24857;SDS011;12935;50.782;6.074;2022-07-23T03:54:15;28.10;;;11.00;;
24857;SDS011;12935;50.782;6.074;2022-07-23T03:56:41;32.17;;;11.57;;
24857;SDS011;12935;50.782;6.074;2022-07-23T03:59:07;31.83;;;12.07;;
24857;SDS011;12935;50.782;6.074;2022-07-23T04:01:33;25.37;;;11.70;;
24857;SDS011;12935;50.782;6.074;2022-07-23T04:03:58;63.20;;;16.83;;
24857;SDS011;12935;50.782;6.074;2022-07-23T04:06:23;46.33;;;13.70;;
24857;SDS011;12935;50.782;6.074;2022-07-23T04:08:49;39.50;;;12.83;;
24857;SDS011;12935;50.782;6.074;2022-07-23T04:11:14;35.43;;;10.67;;
24857;SDS011;12935;50.782;6.074;2022-07-23T04:13:39;40.13;;;12.17;;
24857;SDS011;12935;50.782;6.074;2022-07-23T04:16:05;39.70;;;13.77;;
24857;SDS011;12935;50.782;6.074;2022-07-23T04:18:31;42.43;;;12.20;;
24857;SDS011;12935;50.782;6.074;2022-07-23T04:20:56;31.40;;;12.93;;
24857;SDS011;12935;50.782;6.074;2022-07-23T04:23:22;31.73;;;10.80;;
24857;SDS011;12935;50.782;6.074;2022-07-23T04:25:47;23.83;;;10.80;;
24857;SDS011;12935;50.782;6.074;2022-07-23T04:28:12;39.37;;;12.30;;
24857;SDS011;12935;50.782;6.074;2022-07-23T04:30:37;40.20;;;14.20;;
24857;SDS011;12935;50.782;6.074;2022-07-23T04:33:03;30.60;;;11.20;;
24857;SDS011;12935;50.782;6.074;2022-07-23T04:35:31;27.27;;;10.70;;
24857;SDS011;12935;50.782;6.074;2022-07-23T04:37:57;37.83;;;13.30;;
24857;SDS011;12935;50.782;6.074;2022-07-23T04:40:23;40.37;;;13.00;;
24857;SDS011;12935;50.782;6.074;2022-07-23T04:42:48;26.70;;;11.83;;
24857;SDS011;12935;50.782;6.074;2022-07-23T04:45:13;27.60;;;10.77;;
24857;SDS011;12935;50.782;6.074;2022-07-23T04:47:38;24.53;;;11.80;;
24857;SDS011;12935;50.782;6.074;2022-07-23T04:50:04;47.80;;;15.47;;
24857;SDS011;12935;50.782;6.074;2022-07-23T04:52:29;49.00;;;13.67;;
24857;SDS011;12935;50.782;6.074;2022-07-23T04:54:54;28.33;;;12.00;;
24857;SDS011;12935;50.782;6.074;2022-07-23T04:57:20;23.87;;;11.93;;
24857;SDS011;12935;50.782;6.074;2022-07-23T04:59:45;24.10;;;10.23;;
24857;SDS011;12935;50.782;6.074;2022-07-23T05:02:10;50.63;;;15.17;;
24857;SDS011;12935;50.782;6.074;2022-07-23T05:04:35;46.17;;;14.27;;
24857;SDS011;12935;50.782;6.074;2022-07-23T05:07:01;28.40;;;12.60;;
24857;SDS011;12935;50.782;6.074;2022-07-23T05:09:26;22.90;;;12.50;;
24857;SDS011;12935;50.782;6.074;2022-07-23T05:11:51;43.70;;;15.60;;
24857;SDS011;12935;50.782;6.074;2022-07-23T05:14:17;27.20;;;10.63;;
24857;SDS011;12935;50.782;6.074;2022-07-23T05:16:42;39.63;;;13.93;;
24857;SDS011;12935;50.782;6.074;2022-07-23T05:19:07;39.47;;;13.10;;
24857;SDS011;12935;50.782;6.074;2022-07-23T05:21:33;51.73;;;16.67;;
24857;SDS011;12935;50.782;6.074;2022-07-23T05:23:58;36.40;;;12.70;;
24857;SDS011;12935;50.782;6.074;2022-07-23T05:26:24;28.97;;;13.00;;
24857;SDS011;12935;50.782;6.074;2022-07-23T05:28:50;26.47;;;13.20;;
24857;SDS011;12935;50.782;6.074;2022-07-23T05:31:15;33.83;;;17.93;;
24857;SDS011;12935;50.782;6.074;2022-07-23T05:33:41;38.83;;;13.60;;
24857;SDS011;12935;50.782;6.074;2022-07-23T05:36:06;46.00;;;15.27;;
24857;SDS011;12935;50.782;6.074;2022-07-23T05:38:31;30.60;;;12.47;;
24857;SDS011;12935;50.782;6.074;2022-07-23T05:40:57;34.13;;;13.40;;
24857;SDS011;12935;50.782;6.074;2022-07-23T05:43:22;33.47;;;15.03;;
24857;SDS011;12935;50.782;6.074;2022-07-23T05:45:48;35.60;;;13.33;;
24857;SDS011;12935;50.782;6.074;2022-07-23T05:48:13;27.10;;;15.13;;
24857;SDS011;12935;50.782;6.074;2022-07-23T05:50:38;36.43;;;13.87;;
24857;SDS011;12935;50.782;6.074;2022-07-23T05:53:03;30.13;;;13.10;;
24857;SDS011;12935;50.782;6.074;2022-07-23T05:55:29;37.07;;;14.33;;
24857;SDS011;12935;50.782;6.074;2022-07-23T05:57:56;35.50;;;14.80;;
24857;SDS011;12935;50.782;6.074;2022-07-23T06:00:22;59.23;;;15.50;;
24857;SDS011;12935;50.782;6.074;2022-07-23T06:02:48;33.87;;;14.70;;
24857;SDS011;12935;50.782;6.074;2022-07-23T06:05:14;41.63;;;14.73;;
24857;SDS011;12935;50.782;6.074;2022-07-23T06:07:39;42.13;;;14.60;;
24857;SDS011;12935;50.782;6.074;2022-07-23T06:10:04;47.40;;;17.50;;
24857;SDS011;12935;50.782;6.074;2022-07-23T06:12:30;67.23;;;19.40;;
24857;SDS011;12935;50.782;6.074;2022-07-23T06:14:56;27.20;;;13.97;;
24857;SDS011;12935;50.782;6.074;2022-07-23T06:17:21;43.77;;;16.00;;
24857;SDS011;12935;50.782;6.074;2022-07-23T06:19:46;50.73;;;17.60;;
24857;SDS011;12935;50.782;6.074;2022-07-23T06:22:12;70.60;;;18.60;;
24857;SDS011;12935;50.782;6.074;2022-07-23T06:24:37;44.53;;;15.20;;
24857;SDS011;12935;50.782;6.074;2022-07-23T06:27:03;44.17;;;15.17;;
24857;SDS011;12935;50.782;6.074;2022-07-23T06:29:28;31.97;;;12.90;;
24857;SDS011;12935;50.782;6.074;2022-07-23T06:31:54;53.17;;;16.00;;
24857;SDS011;12935;50.782;6.074;2022-07-23T06:34:19;49.53;;;16.47;;
24857;SDS011;12935;50.782;6.074;2022-07-23T06:36:44;35.07;;;13.67;;
24857;SDS011;12935;50.782;6.074;2022-07-23T06:39:09;37.93;;;16.40;;
24857;SDS011;12935;50.782;6.074;2022-07-23T06:41:35;38.67;;;16.57;;
24857;SDS011;12935;50.782;6.074;2022-07-23T06:44:00;38.00;;;15.80;;
24857;SDS011;12935;50.782;6.074;2022-07-23T06:46:26;37.03;;;15.20;;
24857;SDS011;12935;50.782;6.074;2022-07-23T06:48:51;40.73;;;16.23;;
24857;SDS011;12935;50.782;6.074;2022-07-23T06:51:16;37.10;;;15.30;;
24857;SDS011;12935;50.782;6.074;2022-07-23T06:53:41;34.27;;;14.37;;
24857;SDS011;12935;50.782;6.074;2022-07-23T06:56:07;31.17;;;21.57;;
24857;SDS011;12935;50.782;6.074;2022-07-23T06:58:32;34.33;;;15.47;;
24857;SDS011;12935;50.782;6.074;2022-07-23T07:00:58;40.20;;;17.13;;
24857;SDS011;12935;50.782;6.074;2022-07-23T07:03:23;48.07;;;14.97;;
24857;SDS011;12935;50.782;6.074;2022-07-23T07:05:48;35.23;;;18.37;;
24857;SDS011;12935;50.782;6.074;2022-07-23T07:08:14;54.03;;;16.80;;
24857;SDS011;12935;50.782;6.074;2022-07-23T07:10:40;51.37;;;18.90;;
24857;SDS011;12935;50.782;6.074;2022-07-23T07:13:05;44.03;;;17.40;;
24857;SDS011;12935;50.782;6.074;2022-07-23T07:15:30;43.00;;;15.60;;
24857;SDS011;12935;50.782;6.074;2022-07-23T07:17:56;59.17;;;19.03;;
24857;SDS011;12935;50.782;6.074;2022-07-23T07:20:21;56.43;;;15.83;;
24857;SDS011;12935;50.782;6.074;2022-07-23T07:22:46;29.50;;;15.17;;
24857;SDS011;12935;50.782;6.074;2022-07-23T07:25:12;46.07;;;18.93;;
24857;SDS011;12935;50.782;6.074;2022-07-23T07:27:37;42.80;;;15.87;;
24857;SDS011;12935;50.782;6.074;2022-07-23T07:30:03;40.07;;;19.13;;
24857;SDS011;12935;50.782;6.074;2022-07-23T07:32:29;60.30;;;20.83;;
24857;SDS011;12935;50.782;6.074;2022-07-23T07:34:54;30.13;;;14.37;;
24857;SDS011;12935;50.782;6.074;2022-07-23T07:37:20;36.50;;;17.03;;
24857;SDS011;12935;50.782;6.074;2022-07-23T07:39:45;43.97;;;17.90;;
24857;SDS011;12935;50.782;6.074;2022-07-23T07:42:10;55.10;;;19.00;;
24857;SDS011;12935;50.782;6.074;2022-07-23T07:44:35;43.73;;;16.10;;
24857;SDS011;12935;50.782;6.074;2022-07-23T07:47:01;35.33;;;16.27;;
24857;SDS011;12935;50.782;6.074;2022-07-23T07:49:26;32.30;;;15.40;;
24857;SDS011;12935;50.782;6.074;2022-07-23T07:51:51;49.17;;;18.50;;
24857;SDS011;12935;50.782;6.074;2022-07-23T07:54:17;35.40;;;16.83;;
24857;SDS011;12935;50.782;6.074;2022-07-23T07:56:42;44.87;;;17.30;;
24857;SDS011;12935;50.782;6.074;2022-07-23T07:59:07;39.47;;;17.43;;
24857;SDS011;12935;50.782;6.074;2022-07-23T08:01:32;47.83;;;16.77;;
24857;SDS011;12935;50.782;6.074;2022-07-23T08:03:58;34.63;;;16.00;;
24857;SDS011;12935;50.782;6.074;2022-07-23T08:06:23;45.93;;;18.30;;
24857;SDS011;12935;50.782;6.074;2022-07-23T08:08:49;31.53;;;16.27;;
24857;SDS011;12935;50.782;6.074;2022-07-23T08:11:14;33.93;;;15.90;;
24857;SDS011;12935;50.782;6.074;2022-07-23T08:13:39;35.83;;;16.47;;
24857;SDS011;12935;50.782;6.074;2022-07-23T08:16:05;42.70;;;19.30;;
24857;SDS011;12935;50.782;6.074;2022-07-23T08:18:31;44.37;;;16.30;;
24857;SDS011;12935;50.782;6.074;2022-07-23T08:20:56;35.67;;;17.73;;
24857;SDS011;12935;50.782;6.074;2022-07-23T08:23:21;27.33;;;15.80;;
24857;SDS011;12935;50.782;6.074;2022-07-23T08:25:47;42.73;;;18.63;;
24857;SDS011;12935;50.782;6.074;2022-07-23T08:28:13;38.20;;;17.60;;
24857;SDS011;12935;50.782;6.074;2022-07-23T08:30:40;40.17;;;16.97;;
24857;SDS011;12935;50.782;6.074;2022-07-23T08:33:07;28.83;;;13.70;;
24857;SDS011;12935;50.782;6.074;2022-07-23T08:35:39;77.53;;;20.10;;
24857;SDS011;12935;50.782;6.074;2022-07-23T08:38:12;43.53;;;17.87;;
24857;SDS011;12935;50.782;6.074;2022-07-23T08:40:41;32.33;;;16.37;;
24857;SDS011;12935;50.782;6.074;2022-07-23T08:43:12;30.23;;;15.50;;
24857;SDS011;12935;50.782;6.074;2022-07-23T08:45:44;26.97;;;19.93;;
24857;SDS011;12935;50.782;6.074;2022-07-23T08:48:12;49.13;;;20.50;;
24857;SDS011;12935;50.782;6.074;2022-07-23T08:50:45;46.13;;;19.47;;
24857;SDS011;12935;50.782;6.074;2022-07-23T08:53:12;34.57;;;17.53;;
24857;SDS011;12935;50.782;6.074;2022-07-23T08:55:37;45.97;;;18.83;;
24857;SDS011;12935;50.782;6.074;2022-07-23T08:58:03;35.40;;;17.37;;
24857;SDS011;12935;50.782;6.074;2022-07-23T09:00:28;59.87;;;19.70;;
24857;SDS011;12935;50.782;6.074;2022-07-23T09:02:54;45.17;;;20.20;;
24857;SDS011;12935;50.782;6.074;2022-07-23T09:05:20;28.90;;;17.00;;
24857;SDS011;12935;50.782;6.074;2022-07-23T09:10:44;32.17;;;17.20;;
24857;SDS011;12935;50.782;6.074;2022-07-23T09:18:30;46.80;;;19.37;;
24857;SDS011;12935;50.782;6.074;2022-07-23T09:21:29;26.20;;;15.70;;
24857;SDS011;12935;50.782;6.074;2022-07-23T09:24:00;39.07;;;18.30;;
24857;SDS011;12935;50.782;6.074;2022-07-23T09:26:31;33.23;;;17.03;;
24857;SDS011;12935;50.782;6.074;2022-07-23T09:29:01;32.40;;;16.07;;
24857;SDS011;12935;50.782;6.074;2022-07-23T09:34:34;33.60;;;16.37;;
24857;SDS011;12935;50.782;6.074;2022-07-23T09:37:11;44.00;;;16.67;;
24857;SDS011;12935;50.782;6.074;2022-07-23T09:39:38;40.23;;;16.80;;
24857;SDS011;12935;50.782;6.074;2022-07-23T09:44:46;39.20;;;17.53;;
24857;SDS011;12935;50.782;6.074;2022-07-23T09:47:12;29.93;;;16.30;;
24857;SDS011;12935;50.782;6.074;2022-07-23T09:49:38;24.57;;;17.90;;
24857;SDS011;12935;50.782;6.074;2022-07-23T09:52:04;40.00;;;17.70;;
24857;SDS011;12935;50.782;6.074;2022-07-23T09:56:58;37.00;;;16.07;;
24857;SDS011;12935;50.782;6.074;2022-07-23T09:59:26;42.10;;;19.27;;
24857;SDS011;12935;50.782;6.074;2022-07-23T10:01:54;48.80;;;19.23;;
24857;SDS011;12935;50.782;6.074;2022-07-23T10:04:22;51.50;;;20.97;;
24857;SDS011;12935;50.782;6.074;2022-07-23T10:06:50;33.23;;;17.10;;
24857;SDS011;12935;50.782;6.074;2022-07-23T10:09:17;30.40;;;17.47;;
24857;SDS011;12935;50.782;6.074;2022-07-23T10:11:53;42.53;;;20.37;;
24857;SDS011;12935;50.782;6.074;2022-07-23T10:14:24;29.23;;;18.30;;
24857;SDS011;12935;50.782;6.074;2022-07-23T10:16:51;29.10;;;18.10;;
24857;SDS011;12935;50.782;6.074;2022-07-23T10:19:16;33.47;;;18.97;;
24857;SDS011;12935;50.782;6.074;2022-07-23T10:21:46;33.20;;;19.50;;
24857;SDS011;12935;50.782;6.074;2022-07-23T10:30:09;73.60;;;22.63;;
24857;SDS011;12935;50.782;6.074;2022-07-23T10:37:54;43.10;;;19.20;;
24857;SDS011;12935;50.782;6.074;2022-07-23T10:40:26;32.40;;;17.33;;
24857;SDS011;12935;50.782;6.074;2022-07-23T10:42:53;33.30;;;18.30;;
24857;SDS011;12935;50.782;6.074;2022-07-23T10:47:49;37.10;;;19.33;;
24857;SDS011;12935;50.782;6.074;2022-07-23T10:50:25;50.97;;;19.57;;
24857;SDS011;12935;50.782;6.074;2022-07-23T10:57:57;47.63;;;20.13;;
24857;SDS011;12935;50.782;6.074;2022-07-23T11:00:25;31.33;;;17.57;;
24857;SDS011;12935;50.782;6.074;2022-07-23T11:02:55;30.03;;;17.33;;
24857;SDS011;12935;50.782;6.074;2022-07-23T11:05:22;31.43;;;18.37;;
24857;SDS011;12935;50.782;6.074;2022-07-23T11:31:54;36.27;;;18.10;;
24857;SDS011;12935;50.782;6.074;2022-07-23T11:34:33;34.10;;;19.00;;
24857;SDS011;12935;50.782;6.074;2022-07-23T11:37:06;28.00;;;19.13;;
24857;SDS011;12935;50.782;6.074;2022-07-23T11:39:33;27.23;;;17.20;;
24857;SDS011;12935;50.782;6.074;2022-07-23T11:41:59;34.60;;;18.67;;
24857;SDS011;12935;50.782;6.074;2022-07-23T11:44:29;34.57;;;19.43;;
24857;SDS011;12935;50.782;6.074;2022-07-23T11:49:25;28.50;;;18.57;;
24857;SDS011;12935;50.782;6.074;2022-07-23T11:54:31;30.67;;;18.60;;
24857;SDS011;12935;50.782;6.074;2022-07-23T11:57:01;27.57;;;17.67;;
24857;SDS011;12935;50.782;6.074;2022-07-23T11:59:28;26.97;;;18.70;;
24857;SDS011;12935;50.782;6.074;2022-07-23T12:02:00;29.77;;;18.13;;
24857;SDS011;12935;50.782;6.074;2022-07-23T12:04:45;39.63;;;20.37;;
24857;SDS011;12935;50.782;6.074;2022-07-23T12:10:10;26.77;;;18.30;;
24857;SDS011;12935;50.782;6.074;2022-07-23T12:12:50;33.70;;;19.17;;
24857;SDS011;12935;50.782;6.074;2022-07-23T12:15:25;38.73;;;18.00;;
24857;SDS011;12935;50.782;6.074;2022-07-23T12:17:52;49.10;;;20.43;;
24857;SDS011;12935;50.782;6.074;2022-07-23T12:20:22;32.87;;;18.67;;
24857;SDS011;12935;50.782;6.074;2022-07-23T12:22:51;67.90;;;22.30;;
24857;SDS011;12935;50.782;6.074;2022-07-23T12:25:19;21.43;;;17.20;;
24857;SDS011;12935;50.782;6.074;2022-07-23T12:27:46;26.10;;;19.00;;
24857;SDS011;12935;50.782;6.074;2022-07-23T12:30:24;38.07;;;18.87;;
24857;SDS011;12935;50.782;6.074;2022-07-23T12:32:52;36.70;;;18.20;;
24857;SDS011;12935;50.782;6.074;2022-07-23T12:35:20;33.50;;;18.80;;
24857;SDS011;12935;50.782;6.074;2022-07-23T12:37:47;26.37;;;17.93;;
24857;SDS011;12935;50.782;6.074;2022-07-23T12:45:44;32.43;;;20.80;;
24857;SDS011;12935;50.782;6.074;2022-07-23T12:50:52;37.87;;;20.40;;
24857;SDS011;12935;50.782;6.074;2022-07-23T12:56:06;38.00;;;18.80;;
24857;SDS011;12935;50.782;6.074;2022-07-23T13:01:09;28.90;;;18.00;;
24857;SDS011;12935;50.782;6.074;2022-07-23T13:06:07;31.90;;;17.37;;
24857;SDS011;12935;50.782;6.074;2022-07-23T13:08:34;37.80;;;20.23;;
24857;SDS011;12935;50.782;6.074;2022-07-23T13:11:02;41.67;;;18.23;;
24857;SDS011;12935;50.782;6.074;2022-07-23T13:13:29;31.00;;;18.07;;
24857;SDS011;12935;50.782;6.074;2022-07-23T13:15:56;39.13;;;19.80;;
24857;SDS011;12935;50.782;6.074;2022-07-23T13:18:22;33.00;;;19.47;;
24857;SDS011;12935;50.782;6.074;2022-07-23T13:20:48;35.57;;;17.07;;
24857;SDS011;12935;50.782;6.074;2022-07-23T13:23:14;26.37;;;17.07;;
24857;SDS011;12935;50.782;6.074;2022-07-23T13:25:40;22.03;;;16.50;;
24857;SDS011;12935;50.782;6.074;2022-07-23T13:28:05;28.80;;;15.93;;
24857;SDS011;12935;50.782;6.074;2022-07-23T13:30:31;44.23;;;17.60;;
24857;SDS011;12935;50.782;6.074;2022-07-23T13:32:57;27.90;;;16.20;;
24857;SDS011;12935;50.782;6.074;2022-07-23T13:35:23;22.80;;;14.50;;
24857;SDS011;12935;50.782;6.074;2022-07-23T13:37:48;19.23;;;14.83;;
24857;SDS011;12935;50.782;6.074;2022-07-23T13:40:14;22.83;;;14.70;;
24857;SDS011;12935;50.782;6.074;2022-07-23T13:42:39;27.40;;;15.37;;
24857;SDS011;12935;50.782;6.074;2022-07-23T13:45:05;23.97;;;14.10;;
24857;SDS011;12935;50.782;6.074;2022-07-23T13:47:31;23.20;;;13.80;;
24857;SDS011;12935;50.782;6.074;2022-07-23T13:49:57;27.10;;;15.83;;
24857;SDS011;12935;50.782;6.074;2022-07-23T13:52:22;37.87;;;14.67;;
24857;SDS011;12935;50.782;6.074;2022-07-23T13:54:48;19.23;;;14.30;;
24857;SDS011;12935;50.782;6.074;2022-07-23T13:57:13;22.27;;;17.13;;
24857;SDS011;12935;50.782;6.074;2022-07-23T13:59:38;22.70;;;14.60;;
24857;SDS011;12935;50.782;6.074;2022-07-23T14:02:04;20.57;;;14.00;;
24857;SDS011;12935;50.782;6.074;2022-07-23T14:04:30;40.47;;;16.20;;
24857;SDS011;12935;50.782;6.074;2022-07-23T14:06:55;26.40;;;15.97;;
24857;SDS011;12935;50.782;6.074;2022-07-23T14:09:21;36.93;;;18.33;;
24857;SDS011;12935;50.782;6.074;2022-07-23T14:11:47;30.30;;;16.40;;
24857;SDS011;12935;50.782;6.074;2022-07-23T14:14:12;33.60;;;17.17;;
24857;SDS011;12935;50.782;6.074;2022-07-23T14:16:38;62.23;;;19.90;;
24857;SDS011;12935;50.782;6.074;2022-07-23T14:19:03;27.63;;;18.53;;
24857;SDS011;12935;50.782;6.074;2022-07-23T14:21:29;42.73;;;22.33;;
24857;SDS011;12935;50.782;6.074;2022-07-23T14:23:54;26.33;;;18.43;;
24857;SDS011;12935;50.782;6.074;2022-07-23T14:26:20;56.87;;;22.67;;
24857;SDS011;12935;50.782;6.074;2022-07-23T14:28:45;51.30;;;23.23;;
24857;SDS011;12935;50.782;6.074;2022-07-23T14:31:11;40.13;;;20.00;;
24857;SDS011;12935;50.782;6.074;2022-07-23T14:33:36;31.87;;;21.90;;
24857;SDS011;12935;50.782;6.074;2022-07-23T14:36:01;45.63;;;21.30;;
24857;SDS011;12935;50.782;6.074;2022-07-23T14:38:27;39.97;;;19.90;;
24857;SDS011;12935;50.782;6.074;2022-07-23T14:40:52;45.70;;;21.90;;
24857;SDS011;12935;50.782;6.074;2022-07-23T14:43:18;34.63;;;19.10;;
24857;SDS011;12935;50.782;6.074;2022-07-23T14:45:43;39.37;;;20.67;;
24857;SDS011;12935;50.782;6.074;2022-07-23T14:48:08;29.80;;;18.50;;
24857;SDS011;12935;50.782;6.074;2022-07-23T14:50:34;25.67;;;18.03;;
24857;SDS011;12935;50.782;6.074;2022-07-23T14:52:59;53.97;;;22.70;;
24857;SDS011;12935;50.782;6.074;2022-07-23T14:55:24;40.30;;;19.47;;
24857;SDS011;12935;50.782;6.074;2022-07-23T14:57:50;44.23;;;21.13;;
24857;SDS011;12935;50.782;6.074;2022-07-23T15:00:15;44.03;;;21.07;;
24857;SDS011;12935;50.782;6.074;2022-07-23T15:02:41;42.17;;;20.57;;
24857;SDS011;12935;50.782;6.074;2022-07-23T15:05:06;37.73;;;20.47;;
24857;SDS011;12935;50.782;6.074;2022-07-23T15:07:31;30.40;;;19.17;;
24857;SDS011;12935;50.782;6.074;2022-07-23T15:09:57;49.37;;;21.20;;
24857;SDS011;12935;50.782;6.074;2022-07-23T15:12:23;50.00;;;22.53;;
24857;SDS011;12935;50.782;6.074;2022-07-23T15:14:49;37.97;;;20.77;;
24857;SDS011;12935;50.782;6.074;2022-07-23T15:17:14;37.63;;;20.90;;
24857;SDS011;12935;50.782;6.074;2022-07-23T15:19:39;28.27;;;18.93;;
24857;SDS011;12935;50.782;6.074;2022-07-23T15:22:05;59.07;;;23.10;;
24857;SDS011;12935;50.782;6.074;2022-07-23T15:24:30;44.17;;;20.27;;
24857;SDS011;12935;50.782;6.074;2022-07-23T15:26:56;31.93;;;19.37;;
24857;SDS011;12935;50.782;6.074;2022-07-23T15:29:23;45.20;;;24.10;;
24857;SDS011;12935;50.782;6.074;2022-07-23T15:31:48;37.30;;;19.53;;
24857;SDS011;12935;50.782;6.074;2022-07-23T15:34:14;26.57;;;18.47;;
24857;SDS011;12935;50.782;6.074;2022-07-23T15:36:39;45.80;;;21.40;;
24857;SDS011;12935;50.782;6.074;2022-07-23T15:39:05;32.90;;;19.27;;